map of JNB home
JNB - Airport
Location
City:  Johannesburg, Gauteng, South Africa
Name:O.R. Tambo International Airport
Old (Alt.):Jan Smuts International Airport
ICAO:FAOR
IATA:JNB

Details
Type:Airport (Aerodrome, Airfield)
Use:Public/Civil, International (customs port of entry)
Latitude:2608'01"S (-26.133693)
Longitude:2814'32"E (28.242317)
Elevation:5558 ft (1694 m)
Variation:18.77W (WMM2015 magnetic declination)
-0.10 annual change
Runways:2
Longest:14495 × 197 ft (4418 × 60 m), paved

Time
Time Zone:UTC+2
Local Time:

Weather
METAR:FAOR 211330Z VRB05KT CAVOK 18/01 Q1024 NOSIG
TAF:FAOR 202200Z 2100/2206 34006KT CAVOK
FM210800 32012KT CAVOK TX18/2112Z TN04/2104Z

Related Locations
Nearby:
Farthest:HNM: 11980 mi / 19280 km
Hana, Maui, HI, US

Find:

   beyond  
but within

Other Information
Maps:
NOTAMs:
Links:
Sources:

  
flag of South Africa
flag of Gauteng
flag of Johannesburg
  

Airport Diagram

Airport diagram for JNB

Airport diagram PDF from South African CAA

Sectional Chart

Flight Planning
at skyvector.com

Satellite Image

Google Maps Satellite view

 

Copyright © 2004-2017 Karl L. Swartz. All rights reserved.
The Great Circle Mapper name and logo are trademarks of the Great Circle Mapper.
All other trademarks mentioned herein belong to their respective owners.
Please see credits for attibutions and further copyright information.

  Follow gcmap on Facebook Follow gcmap on Twitter Follow gcmap on Google+ GCmap on LinkedIn

hCard Microformat

Geo Microformat